Time;durP1;ratioP1;P1;durP2;ratioP2;P2;SDS_P1;SDS_P2;PMS_P1;PMS_P2;Temp;Humidity;BMP_temperature;BMP_pressure;BME280_temperature;BME280_humidity;BME280_pressure;Samples;Min_cycle;Max_cycle;Signal;HPM_P1;HPM_P2
2023/03/16 00:00:08;;;;;;;11.73;2.28;;;;;;;6.63;56.70;101761.09;5082234;27;99532;-74
2023/03/16 00:02:34;;;;;;;7.22;1.60;;;;;;;6.66;56.41;101763.69;5079762;27;98844;-74
2023/03/16 00:05:01;;;;;;;4.75;1.75;;;;;;;6.64;56.12;101765.44;5073850;27;96811;-73
2023/03/16 00:07:28;;;;;;;10.07;1.65;;;;;;;6.61;56.47;101768.09;5071880;27;96980;-73
2023/03/16 00:09:54;;;;;;;9.60;1.48;;;;;;;6.68;56.30;101768.06;5077059;27;102040;-73
2023/03/16 00:12:21;;;;;;;8.82;2.00;;;;;;;6.62;56.54;101772.47;5078953;27;101843;-74
2023/03/16 00:14:49;;;;;;;13.23;1.85;;;;;;;6.44;56.76;101768.09;5079571;27;97037;-75
2023/03/16 00:17:18;;;;;;;9.10;1.38;;;;;;;6.16;57.00;101771.69;5075820;27;96921;-73
2023/03/16 00:19:46;;;;;;;7.70;2.03;;;;;;;6.40;56.36;101763.75;5079618;27;99246;-73
2023/03/16 00:22:14;;;;;;;9.60;1.80;;;;;;;6.37;56.92;101769.00;5078391;27;98819;-73
2023/03/16 00:24:42;;;;;;;4.38;1.25;;;;;;;6.27;56.69;101769.91;5082720;27;97722;-74
2023/03/16 00:27:13;;;;;;;6.50;1.55;;;;;;;6.30;56.30;101767.28;5086972;27;96727;-74
2023/03/16 00:29:45;;;;;;;11.40;1.77;;;;;;;6.42;56.58;101769.00;5078756;27;98780;-73
2023/03/16 00:32:12;;;;;;;8.30;1.52;;;;;;;6.25;56.50;101764.66;5073504;27;99090;-74
2023/03/16 00:34:40;;;;;;;7.30;1.60;;;;;;;6.21;56.30;101767.28;5078909;27;97213;-73
2023/03/16 00:37:07;;;;;;;11.07;1.58;;;;;;;6.19;56.54;101769.91;5077877;27;97110;-73
2023/03/16 00:39:34;;;;;;;7.20;1.38;;;;;;;6.25;55.83;101771.66;5090494;27;98771;-74
2023/03/16 00:42:01;;;;;;;4.72;1.45;;;;;;;6.11;56.17;101765.53;5081305;27;97890;-73
2023/03/16 00:44:28;;;;;;;11.73;2.33;;;;;;;6.05;56.50;101779.53;5081344;27;97136;-74
2023/03/16 00:46:54;;;;;;;4.85;1.30;;;;;;;5.90;57.13;101775.19;5073895;27;97059;-73
2023/03/16 00:49:21;;;;;;;5.93;1.40;;;;;;;5.82;57.19;101778.66;5085592;27;98882;-74
2023/03/16 00:51:48;;;;;;;7.50;1.65;;;;;;;6.01;56.48;101775.19;5073659;27;99070;-74
2023/03/16 00:54:16;;;;;;;4.45;1.40;;;;;;;5.92;56.49;101776.06;5081305;27;96861;-73
2023/03/16 00:56:42;;;;;;;7.50;1.50;;;;;;;5.85;56.59;101784.75;5078463;27;97332;-73
2023/03/16 00:59:11;;;;;;;9.07;1.83;;;;;;;5.98;56.31;101777.78;5084235;27;99045;-74
2023/03/16 01:01:38;;;;;;;8.50;1.38;;;;;;;5.94;55.90;101782.19;5077910;27;100404;-74
2023/03/16 01:04:04;;;;;;;7.40;1.48;;;;;;;6.03;55.79;101790.94;5072457;27;98070;-74
2023/03/16 01:06:31;;;;;;;8.80;1.95;;;;;;;5.95;55.92;101777.81;5080496;27;96765;-74
2023/03/16 01:08:59;;;;;;;7.53;1.48;;;;;;;5.90;56.00;101780.44;5083414;27;100420;-73
2023/03/16 01:11:25;;;;;;;6.85;1.58;;;;;;;5.90;56.13;101783.06;5075585;27;97948;-73
2023/03/16 01:13:54;;;;;;;5.32;1.65;;;;;;;5.94;56.12;101784.81;5084917;27;97076;-73
2023/03/16 01:16:21;;;;;;;8.10;1.30;;;;;;;6.01;55.54;101783.06;5087638;27;96930;-73
2023/03/16 01:18:48;;;;;;;4.40;1.33;;;;;;;5.86;55.70;101788.25;5079288;27;101185;-74
2023/03/16 01:21:15;;;;;;;5.30;1.50;;;;;;;5.90;55.64;101788.31;5080921;27;98944;-74
2023/03/16 01:23:43;;;;;;;8.45;1.60;;;;;;;5.96;55.48;101785.69;5077636;27;97669;-73
2023/03/16 01:26:11;;;;;;;7.90;1.65;;;;;;;6.10;55.23;101782.19;5083698;27;96882;-74
2023/03/16 01:28:38;;;;;;;9.18;1.98;;;;;;;6.15;54.52;101783.06;5085005;27;101184;-76
2023/03/16 01:31:08;;;;;;;8.45;1.88;;;;;;;6.03;54.87;101790.94;5087654;27;98794;-74
2023/03/16 01:33:36;;;;;;;4.57;1.17;;;;;;;6.15;55.09;101781.31;5083261;27;96780;-74
2023/03/16 01:36:05;;;;;;;4.95;1.60;;;;;;;5.92;55.59;101783.91;5078370;27;97559;-72
2023/03/16 01:38:32;;;;;;;7.00;1.40;;;;;;;6.10;55.43;101787.44;5082057;27;99067;-73
2023/03/16 01:40:59;;;;;;;13.43;2.08;;;;;;;6.03;55.55;101783.06;5081535;27;98997;-73
2023/03/16 01:43:30;;;;;;;6.40;1.60;;;;;;;6.00;55.09;101778.69;5076281;27;97178;-72
2023/03/16 01:46:22;;;;;;;6.50;1.60;;;;;;;6.01;54.85;101777.81;5073263;27;96629;-73
2023/03/16 01:49:15;;;;;;;6.47;1.63;;;;;;;5.90;55.40;101784.81;5081615;27;98914;-74
2023/03/16 01:51:45;;;;;;;7.28;1.30;;;;;;;5.94;54.89;101779.56;5065713;27;97967;-75
2023/03/16 01:54:20;;;;;;;8.40;1.40;;;;;;;5.81;54.78;101774.28;5082910;27;97156;-74
2023/03/16 01:56:54;;;;;;;9.25;1.60;;;;;;;5.93;54.79;101780.44;5083461;27;97203;-74
2023/03/16 01:59:25;;;;;;;9.88;1.70;;;;;;;5.84;54.83;101777.75;5083623;27;99954;-73
2023/03/16 02:01:52;;;;;;;10.13;2.10;;;;;;;5.98;54.20;101780.41;5082940;27;99117;-74
2023/03/16 02:04:35;;;;;;;11.43;1.88;;;;;;;5.93;54.76;101774.31;5076434;27;97661;-74
2023/03/16 02:07:03;;;;;;;6.40;1.17;;;;;;;5.95;54.49;101773.44;5074738;27;97042;-73
2023/03/16 02:09:31;;;;;;;8.27;2.42;;;;;;;6.08;54.33;101778.69;5080367;27;101346;-74
2023/03/16 02:11:58;;;;;;;8.52;1.65;;;;;;;6.02;54.47;101778.69;5079449;27;99420;-74
2023/03/16 02:14:26;;;;;;;6.45;1.52;;;;;;;5.99;54.66;101772.56;5087418;27;96706;-75
2023/03/16 02:16:53;;;;;;;9.63;3.17;;;;;;;5.89;54.35;101768.19;5078286;27;97777;-74
2023/03/16 02:19:29;;;;;;;6.93;1.50;;;;;;;6.03;54.31;101769.94;5081828;27;98892;-73
2023/03/16 02:22:02;;;;;;;9.13;1.77;;;;;;;5.99;54.39;101766.44;5073988;27;99386;-74
2023/03/16 02:24:29;;;;;;;6.53;1.80;;;;;;;5.88;54.02;101773.44;5084581;27;97064;-75
2023/03/16 02:26:59;;;;;;;6.35;1.42;;;;;;;6.10;53.38;101771.69;5078918;27;97003;-74
2023/03/16 02:29:53;;;;;;;5.53;1.80;;;;;;;5.92;53.87;101775.16;5079281;27;102434;-74
2023/03/16 02:32:22;;;;;;;8.35;1.65;;;;;;;6.10;53.70;101776.94;5071108;27;98750;-74
2023/03/16 02:34:49;;;;;;;7.03;1.65;;;;;;;5.99;53.47;101774.31;5078971;27;96809;-73
2023/03/16 02:37:15;;;;;;;6.95;1.30;;;;;;;5.98;53.74;101773.41;5074601;27;96794;-75
2023/03/16 02:39:42;;;;;;;8.85;1.13;;;;;;;6.11;53.54;101776.91;5079622;27;98072;-74
2023/03/16 02:42:12;;;;;;;14.63;2.08;;;;;;;6.14;52.76;101771.66;5073156;27;99157;-75
2023/03/16 02:44:39;;;;;;;5.22;1.63;;;;;;;5.95;53.46;101775.19;5076791;27;97114;-74
2023/03/16 02:47:12;;;;;;;5.35;1.35;;;;;;;6.03;53.42;101773.44;5081203;27;96837;-74
2023/03/16 02:49:42;;;;;;;7.90;1.80;;;;;;;5.99;53.47;101772.56;5077070;27;99123;-75
2023/03/16 02:52:09;;;;;;;8.38;1.15;;;;;;;5.99;53.40;101774.31;5078558;27;99818;-74
2023/03/16 02:54:35;;;;;;;7.35;2.08;;;;;;;6.13;52.88;101777.78;5077107;27;97866;-75
2023/03/16 02:57:02;;;;;;;7.80;1.42;;;;;;;6.10;52.89;101771.69;5081089;27;96803;-74
2023/03/16 02:59:29;;;;;;;14.07;2.47;;;;;;;6.04;53.23;101777.78;5078876;27;99528;-74
2023/03/16 03:01:55;;;;;;;6.20;1.40;;;;;;;6.08;53.05;101778.69;5077143;27;99782;-75
2023/03/16 03:04:23;;;;;;;2.92;1.38;;;;;;;5.91;53.36;101778.66;5083012;27;96830;-75
2023/03/16 03:06:51;;;;;;;4.60;1.30;;;;;;;5.67;54.27;101783.88;5073090;27;98726;-75
2023/03/16 03:09:18;;;;;;;4.53;1.33;;;;;;;5.83;53.93;101789.16;5084018;27;101698;-75
2023/03/16 03:11:45;;;;;;;7.25;1.48;;;;;;;6.03;53.52;101796.19;5072966;27;99167;-75
2023/03/16 03:14:15;;;;;;;4.40;1.50;;;;;;;6.02;53.45;101799.69;5077886;27;96967;-75
2023/03/16 03:16:45;;;;;;;7.88;2.40;;;;;;;5.85;52.97;101795.25;5080388;27;98524;-75
2023/03/16 03:19:11;;;;;;;6.03;1.67;;;;;;;5.93;53.71;101801.41;5079414;27;99427;-75
2023/03/16 03:21:38;;;;;;;8.23;1.42;;;;;;;5.86;53.41;101798.75;5073845;27;99070;-74
2023/03/16 03:24:06;;;;;;;7.47;1.88;;;;;;;5.69;54.61;101800.50;5078659;27;97085;-74
2023/03/16 03:26:33;;;;;;;10.55;1.73;;;;;;;5.63;54.67;101806.63;5079290;27;97305;-74
2023/03/16 03:28:59;;;;;;;11.15;1.42;;;;;;;5.65;54.03;101806.59;5072318;27;97968;-74
2023/03/16 03:31:25;;;;;;;8.40;1.90;;;;;;;5.78;53.98;101805.72;5077804;27;99017;-75
2023/03/16 03:33:52;;;;;;;7.85;1.80;;;;;;;5.71;53.95;101811.88;5089053;27;96724;-76
2023/03/16 03:36:21;;;;;;;7.82;1.70;;;;;;;5.79;53.90;101808.38;5083089;27;97196;-73
2023/03/16 03:38:48;;;;;;;9.45;2.00;;;;;;;5.68;54.45;101812.72;5078209;27;99046;-74
2023/03/16 03:41:16;;;;;;;8.38;2.05;;;;;;;5.67;54.15;101807.47;5077459;27;99238;-73
2023/03/16 03:43:44;;;;;;;8.32;1.40;;;;;;;5.60;54.78;101809.22;5074060;27;96864;-73
2023/03/16 03:46:10;;;;;;;10.02;1.80;;;;;;;5.72;53.86;101805.72;5076093;27;96843;-73
2023/03/16 03:48:37;;;;;;;9.32;1.58;;;;;;;5.74;54.12;101812.75;5084248;27;103144;-73
2023/03/16 03:51:04;;;;;;;7.10;1.42;;;;;;;5.63;54.26;101811.84;5074165;27;98814;-75
2023/03/16 03:53:30;;;;;;;6.57;1.95;;;;;;;5.70;54.44;101813.63;5074178;27;97672;-74
2023/03/16 03:55:57;;;;;;;8.02;1.30;;;;;;;5.51;54.35;101814.47;5074111;27;96935;-75
2023/03/16 03:58:24;;;;;;;6.15;1.30;;;;;;;5.68;54.19;101815.34;5076709;27;98857;-75
2023/03/16 04:00:52;;;;;;;5.28;1.30;;;;;;;5.65;54.38;101815.34;5077191;27;99035;-75
2023/03/16 04:03:18;;;;;;;12.43;1.65;;;;;;;5.71;54.77;101814.50;5083011;27;99341;-74
2023/03/16 04:05:47;;;;;;;8.02;2.13;;;;;;;5.71;54.27;101807.47;5077426;27;97309;-73
2023/03/16 04:08:14;;;;;;;7.88;2.00;;;;;;;5.84;53.94;101808.38;5082553;27;97973;-77
2023/03/16 04:10:40;;;;;;;7.90;1.50;;;;;;;5.63;54.10;101811.84;5076847;27;99354;-76
2023/03/16 04:13:07;;;;;;;9.30;1.88;;;;;;;5.65;54.39;101815.34;5074038;27;99323;-74
2023/03/16 04:15:37;;;;;;;8.43;1.52;;;;;;;5.42;54.48;101809.19;5077913;27;97336;-74
2023/03/16 04:18:03;;;;;;;8.07;1.73;;;;;;;5.69;54.09;101813.59;5075038;27;98974;-75
2023/03/16 04:20:30;;;;;;;6.90;1.30;;;;;;;5.53;54.69;101813.56;5077443;27;99343;-74
2023/03/16 04:22:58;;;;;;;8.55;1.50;;;;;;;5.72;54.03;101809.22;5084262;27;96835;-76
2023/03/16 04:25:25;;;;;;;6.75;1.45;;;;;;;5.74;54.38;101804.88;5081918;27;99484;-75
2023/03/16 04:27:51;;;;;;;8.45;1.70;;;;;;;5.57;54.42;101810.09;5083611;27;98088;-74
2023/03/16 04:30:18;;;;;;;9.68;2.00;;;;;;;5.58;54.11;101808.31;5077963;27;98944;-75
2023/03/16 04:32:46;;;;;;;10.50;2.40;;;;;;;5.48;54.43;101812.69;5087038;27;96664;-74
2023/03/16 04:35:14;;;;;;;8.55;1.95;;;;;;;5.36;54.63;101811.78;5080475;27;97206;-74
2023/03/16 04:37:41;;;;;;;5.35;1.30;;;;;;;5.45;54.57;101814.41;5084439;27;101084;-74
2023/03/16 04:40:15;;;;;;;6.68;1.83;;;;;;;5.42;54.34;101814.44;5088272;27;99342;-74
2023/03/16 04:42:42;;;;;;;5.63;2.10;;;;;;;5.59;54.06;101816.19;5074884;27;97200;-74
2023/03/16 04:45:09;;;;;;;10.02;1.80;;;;;;;5.58;54.52;101821.44;5075551;27;97309;-74
2023/03/16 04:47:36;;;;;;;6.40;1.75;;;;;;;5.52;54.53;101813.56;5077945;27;99324;-74
2023/03/16 04:50:05;;;;;;;7.90;1.63;;;;;;;5.73;53.80;101816.22;5082047;27;98853;-75
2023/03/16 04:52:31;;;;;;;7.28;2.13;;;;;;;5.54;54.16;101823.19;5078471;27;96767;-73
2023/03/16 04:54:58;;;;;;;4.85;1.60;;;;;;;5.61;53.83;101818.84;5083099;27;96849;-75
2023/03/16 04:57:25;;;;;;;7.57;1.30;;;;;;;5.66;53.98;101817.09;5077917;27;98988;-74
2023/03/16 04:59:51;;;;;;;7.38;2.33;;;;;;;5.51;54.11;101822.31;5086181;27;99351;-74
2023/03/16 05:02:18;;;;;;;10.38;1.88;;;;;;;5.43;53.90;101829.28;5065779;27;97965;-75
2023/03/16 05:04:45;;;;;;;9.38;2.10;;;;;;;5.46;53.53;101824.91;5085384;27;96761;-76
2023/03/16 05:07:13;;;;;;;7.72;1.83;;;;;;;5.47;53.88;101833.66;5082802;27;96915;-74
2023/03/16 05:09:40;;;;;;;9.02;1.70;;;;;;;5.42;54.04;101830.16;5089485;27;98138;-74
2023/03/16 05:12:07;;;;;;;4.90;1.50;;;;;;;5.37;53.84;101834.50;5071030;27;98597;-74
2023/03/16 05:14:34;;;;;;;3.65;1.58;;;;;;;5.44;54.09;101831.91;5085154;27;98454;-75
2023/03/16 05:17:02;;;;;;;9.77;1.67;;;;;;;5.45;53.49;101833.63;5079115;27;98957;-74
2023/03/16 05:19:29;;;;;;;7.90;1.75;;;;;;;5.39;54.25;101831.00;5078222;27;99439;-74
2023/03/16 05:21:55;;;;;;;5.97;1.50;;;;;;;5.52;53.93;101831.91;5083010;27;96925;-73
2023/03/16 05:24:23;;;;;;;5.53;1.20;;;;;;;5.48;53.50;101828.44;5086037;27;96806;-74
2023/03/16 05:26:50;;;;;;;8.10;2.03;;;;;;;5.50;53.76;101836.31;5077240;27;97734;-74
2023/03/16 05:29:16;;;;;;;8.27;1.70;;;;;;;5.52;53.50;101838.03;5078499;27;100185;-75
2023/03/16 05:31:45;;;;;;;8.43;1.65;;;;;;;5.61;53.48;101838.06;5081388;27;98853;-74
2023/03/16 05:34:12;;;;;;;9.35;1.73;;;;;;;5.66;53.27;101839.81;5084536;27;98435;-74
2023/03/16 05:36:38;;;;;;;5.72;1.50;;;;;;;5.40;53.63;101839.75;5087647;27;98880;-74
2023/03/16 05:39:07;;;;;;;10.13;1.75;;;;;;;5.63;53.35;101838.06;5079752;27;98718;-74
2023/03/16 05:41:35;;;;;;;7.53;2.72;;;;;;;5.61;53.10;101842.44;5080857;27;97398;-74
2023/03/16 05:44:03;;;;;;;8.05;1.60;;;;;;;5.74;52.80;101836.34;5081333;27;98693;-74
2023/03/16 05:46:29;;;;;;;11.25;2.33;;;;;;;5.68;52.90;101841.56;5075605;27;99635;-74
2023/03/16 05:48:56;;;;;;;9.32;1.67;;;;;;;5.79;52.61;101847.72;5082805;27;98763;-75
2023/03/16 05:51:25;;;;;;;11.35;2.10;;;;;;;5.79;51.71;101850.31;5072665;27;97056;-76
2023/03/16 05:53:55;;;;;;;9.93;1.88;;;;;;;5.63;52.32;101850.31;5083191;27;96936;-74
2023/03/16 05:56:22;;;;;;;8.02;1.83;;;;;;;5.91;51.40;101860.00;5081738;27;98757;-69
2023/03/16 05:58:51;;;;;;;11.30;1.63;;;;;;;5.91;51.70;101866.13;5076443;27;99156;-70
2023/03/16 06:01:17;;;;;;;5.82;1.52;;;;;;;5.92;51.54;101867.00;5084280;27;98352;-70
2023/03/16 06:03:44;;;;;;;5.03;1.83;;;;;;;6.09;51.56;101864.41;5078502;27;98508;-70
2023/03/16 06:06:10;;;;;;;7.32;1.90;;;;;;;6.11;51.27;101863.50;5083908;27;100964;-70
2023/03/16 06:08:37;;;;;;;7.97;1.83;;;;;;;5.88;51.60;101855.63;5074014;27;98819;-71
2023/03/16 06:11:04;;;;;;;7.53;2.03;;;;;;;5.97;51.81;101860.88;5082233;27;96761;-70
2023/03/16 06:13:30;;;;;;;6.28;1.80;;;;;;;6.39;50.42;101861.75;5078399;27;99095;-71
2023/03/16 06:15:58;;;;;;;14.10;2.22;;;;;;;6.46;50.73;101865.25;5076884;27;99010;-71
2023/03/16 06:18:25;;;;;;;6.93;1.90;;;;;;;6.47;50.21;101867.00;5082315;27;97829;-71
2023/03/16 06:20:52;;;;;;;6.68;1.70;;;;;;;6.44;50.38;101865.25;5083098;27;97405;-72
2023/03/16 06:23:19;;;;;;;5.68;1.60;;;;;;;6.51;50.33;101866.13;5082801;27;97214;-70
2023/03/16 06:25:49;;;;;;;8.07;2.30;;;;;;;6.55;49.85;101875.75;5082654;27;101649;-72
2023/03/16 06:28:15;;;;;;;12.02;4.15;;;;;;;6.52;51.14;101871.38;5082924;27;99011;-71
2023/03/16 06:30:42;;;;;;;15.57;2.40;;;;;;;6.84;50.17;101878.31;5074959;27;98526;-70
2023/03/16 06:33:10;;;;;;;9.48;2.58;;;;;;;6.93;49.90;101883.56;5080215;27;97753;-72
2023/03/16 06:35:37;;;;;;;5.20;2.17;;;;;;;6.54;50.31;101887.16;5077721;27;98185;-71
2023/03/16 06:38:03;;;;;;;9.10;2.05;;;;;;;6.73;50.18;101887.13;5086393;27;99254;-70
2023/03/16 06:40:30;;;;;;;9.93;2.17;;;;;;;6.72;50.11;101881.84;5072998;27;97594;-72
2023/03/16 06:42:57;;;;;;;11.70;1.90;;;;;;;7.02;48.63;101889.66;5072093;27;96791;-71
2023/03/16 06:45:24;;;;;;;9.30;2.00;;;;;;;7.03;48.52;101885.28;5079957;27;100736;-71
2023/03/16 06:47:51;;;;;;;7.03;1.95;;;;;;;7.35;48.17;101888.66;5094258;27;99266;-73
2023/03/16 06:50:19;;;;;;;4.25;1.52;;;;;;;7.44;47.58;101898.28;5075165;27;98842;-72
2023/03/16 06:52:46;;;;;;;8.10;1.85;;;;;;;7.26;47.09;101903.63;5079822;27;96965;-71
2023/03/16 06:55:13;;;;;;;11.32;1.85;;;;;;;7.33;47.00;101910.59;5078956;27;98790;-71
2023/03/16 06:57:40;;;;;;;10.95;1.88;;;;;;;7.59;47.09;101909.63;5078752;27;101377;-72
2023/03/16 07:00:08;;;;;;;12.35;2.00;;;;;;;7.76;46.83;101903.38;5079440;27;96890;-72
2023/03/16 07:02:35;;;;;;;10.13;2.15;;;;;;;7.83;45.30;101907.72;5079692;27;96966;-73
2023/03/16 07:05:01;;;;;;;6.50;1.70;;;;;;;8.04;45.71;101912.88;5087953;27;98722;-71
2023/03/16 07:07:29;;;;;;;9.70;1.52;;;;;;;8.04;44.91;101914.63;5072720;27;99141;-71
2023/03/16 07:09:56;;;;;;;10.43;1.60;;;;;;;8.07;44.54;101922.50;5084327;27;99037;-71
2023/03/16 07:12:23;;;;;;;5.82;1.33;;;;;;;8.05;44.17;101919.88;5075652;27;96760;-71
2023/03/16 07:14:50;;;;;;;6.28;1.50;;;;;;;8.05;44.54;101914.63;5080074;27;99290;-71
2023/03/16 07:17:16;;;;;;;6.18;2.15;;;;;;;8.39;43.82;101920.56;5082727;27;99196;-71
2023/03/16 07:19:43;;;;;;;6.68;1.88;;;;;;;8.30;43.31;101918.84;5079214;27;96950;-71
2023/03/16 07:22:09;;;;;;;3.42;1.50;;;;;;;8.59;43.26;101920.38;5081502;27;99965;-71
2023/03/16 07:24:37;;;;;;;11.30;2.45;;;;;;;8.82;42.62;101915.75;5079036;27;98875;-71
2023/03/16 07:27:04;;;;;;;7.32;2.17;;;;;;;8.88;42.45;101918.34;5083727;27;102056;-71
2023/03/16 07:29:30;;;;;;;6.25;1.60;;;;;;;8.95;42.38;101922.66;5077756;27;96999;-72
2023/03/16 07:31:57;;;;;;;6.88;1.55;;;;;;;9.12;41.36;101925.97;5079818;27;96846;-71
2023/03/16 07:34:23;;;;;;;11.15;2.00;;;;;;;8.96;40.74;101926.19;5075155;27;97823;-71
2023/03/16 07:36:51;;;;;;;12.43;1.98;;;;;;;9.29;41.53;101932.84;5084032;27;98626;-72
2023/03/16 07:39:18;;;;;;;8.95;1.67;;;;;;;9.33;40.99;101943.34;5076221;27;97609;-73
2023/03/16 07:41:46;;;;;;;11.32;1.75;;;;;;;9.35;40.35;101938.06;5080581;27;98614;-72
2023/03/16 07:44:13;;;;;;;11.70;1.73;;;;;;;9.38;40.47;101935.41;5079475;27;98151;-72
2023/03/16 07:46:40;;;;;;;10.55;1.83;;;;;;;9.87;39.78;101933.84;5090415;27;98838;-73
2023/03/16 07:49:08;;;;;;;9.05;1.80;;;;;;;9.88;39.41;101938.25;5087615;27;97105;-72
2023/03/16 07:51:34;;;;;;;10.27;2.10;;;;;;;10.08;39.41;101943.25;5094058;27;96912;-72
2023/03/16 07:54:01;;;;;;;12.35;1.95;;;;;;;9.94;38.95;101940.81;5082289;27;99197;-71
2023/03/16 07:56:27;;;;;;;9.23;2.05;;;;;;;10.29;38.70;101942.97;5093802;27;98933;-73
2023/03/16 07:58:55;;;;;;;10.00;2.10;;;;;;;10.44;38.81;101936.56;5090446;27;97107;-72
2023/03/16 08:01:22;;;;;;;5.38;1.67;;;;;;;10.39;38.45;101938.41;5093763;27;97081;-72
2023/03/16 08:03:48;;;;;;;7.03;1.20;;;;;;;10.66;38.09;101947.66;5086192;27;98940;-72
2023/03/16 08:06:15;;;;;;;10.35;1.67;;;;;;;10.70;37.21;101944.91;5089382;27;101863;-71
2023/03/16 08:08:42;;;;;;;6.38;1.58;;;;;;;10.66;37.25;101953.81;5089691;27;96763;-72
2023/03/16 08:11:08;;;;;;;9.77;1.70;;;;;;;10.54;37.24;101942.56;5082367;27;97059;-71
2023/03/16 08:13:38;;;;;;;5.00;1.65;;;;;;;10.41;37.57;101941.91;5083891;27;98212;-70
2023/03/16 08:16:09;;;;;;;6.78;1.75;;;;;;;10.47;37.80;101936.50;5082045;27;99037;-72
2023/03/16 08:18:36;;;;;;;9.27;1.65;;;;;;;11.02;36.54;101938.22;5087522;27;96752;-72
2023/03/16 08:21:03;;;;;;;3.78;1.13;;;;;;;10.84;36.22;101943.81;5086486;27;98893;-71
2023/03/16 08:23:32;;;;;;;6.78;1.38;;;;;;;11.03;36.07;101942.56;5085581;27;99096;-71
2023/03/16 08:25:59;;;;;;;5.38;1.45;;;;;;;11.45;35.96;101944.41;5084806;27;102315;-72
2023/03/16 08:28:26;;;;;;;5.95;1.40;;;;;;;11.41;35.81;101944.50;5081844;27;96778;-71
2023/03/16 08:30:54;;;;;;;7.28;1.45;;;;;;;11.08;36.31;101956.63;5085874;27;96846;-73
2023/03/16 08:33:22;;;;;;;9.48;1.55;;;;;;;10.99;35.29;101940.91;5087646;27;99525;-71
2023/03/16 08:35:48;;;;;;;8.68;1.33;;;;;;;10.84;35.33;101949.09;5084172;27;97941;-72
2023/03/16 08:38:15;;;;;;;8.95;1.60;;;;;;;10.53;35.74;101948.75;5086841;27;96989;-72
2023/03/16 08:40:46;;;;;;;10.63;1.25;;;;;;;10.95;35.36;101949.81;5079207;27;96978;-72
2023/03/16 08:43:13;;;;;;;6.20;1.70;;;;;;;10.61;35.75;101947.75;5094643;27;99265;-72
2023/03/16 08:45:40;;;;;;;8.88;1.75;;;;;;;11.04;35.54;101949.63;5079309;27;101142;-71
2023/03/16 08:48:06;;;;;;;4.55;1.20;;;;;;;11.15;34.91;101952.97;5091816;27;96728;-72
2023/03/16 08:50:34;;;;;;;9.30;1.80;;;;;;;11.38;34.84;101955.16;5079580;27;96927;-72
2023/03/16 08:53:01;;;;;;;5.45;1.17;;;;;;;11.29;34.79;101950.91;5085296;27;99216;-73
2023/03/16 08:55:27;;;;;;;8.85;1.40;;;;;;;11.12;33.77;101958.28;5078243;27;99362;-72
2023/03/16 08:57:54;;;;;;;6.25;1.13;;;;;;;11.61;33.40;101962.66;5085046;27;97263;-72
2023/03/16 09:00:22;;;;;;;7.03;1.40;;;;;;;11.57;33.05;101965.34;5084375;27;96765;-72
2023/03/16 09:02:48;;;;;;;7.65;1.40;;;;;;;11.69;33.41;101965.97;5086436;27;100557;-71
2023/03/16 09:05:17;;;;;;;9.80;1.90;;;;;;;12.15;32.95;101965.88;5080735;27;97839;-72
2023/03/16 09:07:45;;;;;;;5.13;1.00;;;;;;;12.32;32.41;101969.03;5082702;27;96737;-71
2023/03/16 09:10:14;;;;;;;8.93;1.00;;;;;;;12.07;31.93;101966.09;5077348;27;96876;-71
2023/03/16 09:12:42;;;;;;;6.63;1.10;;;;;;;11.89;32.08;101967.34;5081052;27;99695;-71
2023/03/16 09:15:10;;;;;;;3.75;1.00;;;;;;;11.75;31.95;101972.06;5083783;27;99426;-72
2023/03/16 09:17:37;;;;;;;4.35;0.90;;;;;;;11.79;31.43;101972.88;5078609;27;96807;-71
2023/03/16 09:20:08;;;;;;;3.90;0.80;;;;;;;11.69;31.88;101977.44;5074809;27;96801;-72
2023/03/16 09:22:35;;;;;;;8.18;1.08;;;;;;;11.48;31.50;101975.25;5072435;27;97558;-72
2023/03/16 09:25:04;;;;;;;5.80;0.98;;;;;;;11.59;31.49;101976.78;5075518;27;100337;-72
2023/03/16 09:27:30;;;;;;;10.52;1.17;;;;;;;11.83;31.27;101980.72;5078025;27;97853;-73
2023/03/16 09:29:58;;;;;;;5.13;1.02;;;;;;;12.09;30.78;101976.63;5081214;27;96854;-72
2023/03/16 09:32:24;;;;;;;5.53;0.93;;;;;;;11.84;30.75;101978.94;5076348;27;98846;-72
2023/03/16 09:34:51;;;;;;;6.35;0.93;;;;;;;12.18;31.10;101979.97;5076244;27;99140;-72
2023/03/16 09:37:17;;;;;;;6.05;1.10;;;;;;;12.40;30.95;101976.81;5079933;27;97116;-73
2023/03/16 09:39:44;;;;;;;4.40;0.90;;;;;;;12.56;30.80;101983.47;5076716;27;96852;-73
2023/03/16 09:42:19;;;;;;;28.95;2.50;;;;;;;12.87;29.85;101973.84;5078091;27;97687;-71
2023/03/16 09:44:56;;;;;;;6.85;1.00;;;;;;;12.73;30.12;101981.31;5076246;27;98931;-73
2023/03/16 09:47:27;;;;;;;6.20;0.93;;;;;;;12.63;29.83;101983.31;5072871;27;97749;-73
2023/03/16 09:49:58;;;;;;;5.45;1.00;;;;;;;12.53;30.08;101976.50;5080497;27;97280;-73
2023/03/16 09:52:32;;;;;;;11.00;1.52;;;;;;;12.88;29.78;101980.03;5071698;27;99397;-72
2023/03/16 09:55:03;;;;;;;5.03;1.08;;;;;;;12.80;28.97;101982.03;5086542;27;97993;-73
2023/03/16 09:57:34;;;;;;;4.47;1.30;;;;;;;12.87;29.51;101978.28;5077886;27;97138;-73
2023/03/16 10:00:16;;;;;;;3.90;1.00;;;;;;;12.85;28.69;101986.31;5080224;27;96815;-72
2023/03/16 10:02:59;;;;;;;7.40;1.02;;;;;;;12.76;28.89;101987.41;5079116;27;98862;-72
2023/03/16 10:05:27;;;;;;;5.43;0.75;;;;;;;12.86;28.26;101982.75;5072382;27;99417;-72
2023/03/16 10:08:07;;;;;;;4.97;0.70;;;;;;;12.89;27.86;101976.47;5080339;27;97384;-72
2023/03/16 10:11:10;;;;;;;11.70;1.05;;;;;;;12.67;26.90;101977.00;5079169;27;97227;-72
2023/03/16 10:13:44;;;;;;;2.40;0.80;;;;;;;12.87;27.64;101972.97;5050946;27;99862;-73
2023/03/16 10:16:17;;;;;;;5.05;0.68;;;;;;;12.73;26.85;101970.69;5075701;27;99873;-72
2023/03/16 10:18:46;;;;;;;5.97;1.00;;;;;;;12.94;27.54;101969.25;5072231;27;97306;-72
2023/03/16 10:21:15;;;;;;;7.70;1.17;;;;;;;13.10;27.19;101970.63;5075480;27;96884;-72
2023/03/16 10:23:43;;;;;;;2.67;0.90;;;;;;;12.77;27.24;101967.06;5072457;27;101879;-72
2023/03/16 10:26:15;;;;;;;3.92;0.70;;;;;;;12.92;26.91;101971.97;5074403;27;101977;-72
2023/03/16 10:28:44;;;;;;;7.85;0.82;;;;;;;12.82;27.89;101973.09;5072273;27;98086;-73
2023/03/16 10:31:12;;;;;;;12.27;2.17;;;;;;;12.73;28.02;101976.84;5074520;27;97448;-73
2023/03/16 10:33:39;;;;;;;8.43;1.10;;;;;;;12.69;27.08;101961.06;5078651;27;98354;-71
2023/03/16 10:36:14;;;;;;;3.47;0.93;;;;;;;12.66;26.92;101961.16;5078497;27;99710;-72
2023/03/16 10:38:45;;;;;;;8.05;1.25;;;;;;;12.88;27.85;101959.69;5077170;27;97418;-72
2023/03/16 10:41:22;;;;;;;3.05;0.77;;;;;;;13.10;27.76;101955.56;5078769;27;97032;-71
2023/03/16 10:43:52;;;;;;;4.32;1.27;;;;;;;12.71;27.06;101956.59;5076077;27;97704;-72
2023/03/16 10:46:18;;;;;;;5.10;0.93;;;;;;;12.86;27.00;101955.34;5078766;27;99358;-73
2023/03/16 10:48:53;;;;;;;4.95;0.95;;;;;;;12.93;27.50;101955.13;5075612;27;96831;-73
2023/03/16 10:51:25;;;;;;;5.03;1.30;;;;;;;12.86;27.07;101950.03;5075061;27;96748;-71
2023/03/16 10:53:52;;;;;;;4.65;1.02;;;;;;;12.71;27.14;101967.22;5070213;27;99173;-72
2023/03/16 10:56:22;;;;;;;8.85;1.00;;;;;;;12.70;26.43;101952.19;5075395;27;99168;-72
2023/03/16 10:58:48;;;;;;;6.13;0.95;;;;;;;12.90;26.57;101960.53;5073854;27;97363;-71
2023/03/16 11:01:21;;;;;;;3.95;1.02;;;;;;;13.33;26.02;101951.44;5067692;27;96945;-73
2023/03/16 11:03:50;;;;;;;4.05;0.85;;;;;;;12.83;27.03;101960.72;5070162;27;99276;-71
2023/03/16 11:06:21;;;;;;;7.90;0.75;;;;;;;12.71;26.77;101962.78;5071280;27;98881;-77
2023/03/16 11:08:48;;;;;;;4.20;1.00;;;;;;;12.79;26.38;101959.94;5073651;27;97315;-78
2023/03/16 11:11:18;;;;;;;3.92;0.95;;;;;;;12.86;26.83;101960.66;5076879;27;96996;-78
2023/03/16 11:13:46;;;;;;;4.30;0.90;;;;;;;12.63;26.07;101958.56;5074147;27;99198;-77
2023/03/16 11:16:30;;;;;;;3.65;0.80;;;;;;;12.69;26.62;101948.66;5075310;27;101110;-78
2023/03/16 11:18:59;;;;;;;5.45;0.88;;;;;;;12.59;27.63;101946.31;5074435;27;96739;-74
2023/03/16 11:21:38;;;;;;;8.60;1.48;;;;;;;12.84;27.14;101944.75;5071539;27;97305;-76
2023/03/16 11:24:10;;;;;;;3.38;0.93;;;;;;;12.66;26.86;101943.47;5078991;27;99480;-77
2023/03/16 11:26:41;;;;;;;6.18;2.13;;;;;;;12.88;27.04;101937.59;5073785;27;98874;-77
2023/03/16 11:29:16;;;;;;;4.50;0.88;;;;;;;12.60;26.91;101929.50;5080142;27;97565;-75
2023/03/16 11:31:52;;;;;;;8.23;1.33;;;;;;;12.63;26.82;101938.22;5076406;27;97409;-77
2023/03/16 11:34:22;;;;;;;5.32;0.85;;;;;;;12.73;26.86;101934.41;5075471;27;99732;-78